Codrington, Antigua and Barbuda

06:34 PM AST on Februari 17, 2019 (GMT -0400)
V C Bird International | | Change Station

Elev 46 ft 17.12 °N, 61.78 °W | Updated 34 minutes ago

Klart
Klart
79 °F
Feels Like 79 °F
N
12
Vind Växlande Vind from O/SO

Idag
High -- | Low -- °F
--% Chance of Precip.
Yesterday
High -- | Low -- °F
Precip. -- tum
Lufttryck 30.06 tum
Sikt 6.2 miles
Molnigt Few 2000 ft
Daggpunkt 68 °F
Luftfuktighet 69%
Rainfall 0.00 tum
Snow Depth Not available.
6:33 AM 6:09 PM
Andra kvarteret, 96% visible
METAR TAPA 172200Z 12010KT 9999 FEW020 26/20 Q1018 NOSIG
Lufttryck 30.06 tum
Sikt 6.2 miles
Molnigt Few 2000 ft
Daggpunkt 68 °F
Luftfuktighet 69%
Rainfall 0.00 tum
Snow Depth Not available.
6:33 AM 6:09 PM
Andra kvarteret, 96% visible
METAR TAPA 172200Z 12010KT 9999 FEW020 26/20 Q1018 NOSIG

Get Severe Weather Alerts

Thanks for signing up!

Be on the lookout for a verification email in your inbox.

You'll start receiving the daily forecast at 6 AM.

×

10-Day Weather Forecast

No radar image for this location.
×

Almanac

Astronomi

Feb. 17, 2019 Rise Set
Actual Time
Civil Twilight
Nautical Twilight
Astronomical Twilight
Månen
Length Of Visible Light
Dagens längd
Tomorrow will be .
, % of the Moon is Illuminated

Today's Extremes

Country Highs Country Lows

Community

WunderPhotos

Category 6

Welcome to Category 6. This is the collective home for Weather Underground's featured writeups by Dr. Jeff Masters (right), Bob Henson (left), Chris Burt, and other regular contributors.

Nearby

Air Quality

  Air Quality AQ Index Pollutant
Not available.

Snödjup

Station Depth Elevation

Earthquake Activity

Stad Distance Mag. Time & Date
Minimum magnitude displayed is 2.5.

Coastal Water Temperatures

Plats Temperatur

Stations

Nearby Weather Stations

Station Location Temp Vindavkylning Daggpunkt Luftfuktighet Vind Precip. Elev Uppdaterad Type